createdAt,value
2022-09-15T00:01:31.397Z,20.40
2022-09-15T00:04:00.478Z,20.40
2022-09-15T00:06:27.568Z,20.40
2022-09-15T00:08:54.478Z,20.40
2022-09-15T00:11:25.572Z,20.40
2022-09-15T00:13:58.741Z,20.40
2022-09-15T00:16:28.014Z,20.40
2022-09-15T00:18:55.488Z,20.50
2022-09-15T00:21:35.183Z,20.50
2022-09-15T00:24:05.153Z,20.50
2022-09-15T00:26:32.822Z,20.50
2022-09-15T00:29:00.709Z,20.50
2022-09-15T00:31:31.308Z,20.50
2022-09-15T00:34:04.863Z,20.50
2022-09-15T00:36:34.179Z,20.40
2022-09-15T00:39:03.992Z,20.40
2022-09-15T00:41:33.785Z,20.40
2022-09-15T00:44:06.287Z,20.40
2022-09-15T00:46:51.800Z,20.30
2022-09-15T00:49:41.014Z,20.30
2022-09-15T00:52:15.689Z,20.20
2022-09-15T00:54:49.335Z,20.20
2022-09-15T00:57:53.002Z,20.10
2022-09-15T01:00:24.631Z,20.10
2022-09-15T01:02:56.219Z,20.10
2022-09-15T01:05:36.767Z,20.00
2022-09-15T01:08:19.665Z,20.00
2022-09-15T01:10:52.102Z,20.00
2022-09-15T01:13:19.227Z,20.00
2022-09-15T01:16:13.713Z,20.00
2022-09-15T01:18:54.455Z,19.90
2022-09-15T01:21:34.968Z,19.90
2022-09-15T01:24:10.617Z,19.90
2022-09-15T01:27:40.372Z,19.80
2022-09-15T01:30:20.012Z,19.80
2022-09-15T01:33:20.707Z,19.80
2022-09-15T01:36:18.260Z,19.80
2022-09-15T01:39:21.578Z,19.70
2022-09-15T01:42:04.543Z,19.60
2022-09-15T01:44:42.387Z,19.60
2022-09-15T01:47:16.867Z,19.60
2022-09-15T01:50:03.286Z,19.50
2022-09-15T01:52:31.544Z,19.50
2022-09-15T01:55:07.850Z,19.50
2022-09-15T01:57:39.828Z,19.50
2022-09-15T02:00:10.325Z,19.40
2022-09-15T02:02:48.253Z,19.40
2022-09-15T02:05:25.242Z,19.40
2022-09-15T02:08:08.816Z,19.40
2022-09-15T02:10:44.375Z,19.30
2022-09-15T02:13:32.700Z,19.30
2022-09-15T02:16:04.113Z,19.20
2022-09-15T02:18:45.098Z,19.20
2022-09-15T02:21:20.063Z,19.20
2022-09-15T02:23:54.098Z,19.20
2022-09-15T02:26:30.417Z,19.20
2022-09-15T02:29:02.579Z,19.20
2022-09-15T02:31:35.129Z,19.10
2022-09-15T02:34:15.591Z,19.10
2022-09-15T02:36:46.579Z,19.10
2022-09-15T02:39:19.321Z,19.00
2022-09-15T02:41:46.332Z,19.00
2022-09-15T02:44:13.137Z,19.00
2022-09-15T02:46:44.493Z,18.90
2022-09-15T02:49:11.223Z,18.90
2022-09-15T02:51:40.119Z,18.80
2022-09-15T02:54:09.620Z,18.80
2022-09-15T02:56:36.345Z,18.80
2022-09-15T02:59:03.371Z,18.80
2022-09-15T03:01:34.740Z,18.80
2022-09-15T03:04:07.467Z,18.80
2022-09-15T03:06:35.157Z,18.80
2022-09-15T03:09:08.516Z,18.80
2022-09-15T03:11:38.952Z,18.70
2022-09-15T03:14:08.811Z,18.70
2022-09-15T03:16:42.461Z,18.70
2022-09-15T03:19:12.237Z,18.70
2022-09-15T03:21:38.962Z,18.70
2022-09-15T03:24:05.927Z,18.60
2022-09-15T03:26:35.047Z,18.60
2022-09-15T03:29:07.199Z,18.60
2022-09-15T03:31:33.958Z,18.60
2022-09-15T03:34:00.820Z,18.60
2022-09-15T03:36:30.842Z,18.50
2022-09-15T03:39:02.743Z,18.50
2022-09-15T03:41:31.942Z,18.50
2022-09-15T03:43:58.739Z,18.50
2022-09-15T03:46:25.438Z,18.50
2022-09-15T03:48:54.658Z,18.40
2022-09-15T03:51:29.024Z,18.40
2022-09-15T03:54:00.084Z,18.40
2022-09-15T03:56:33.092Z,18.40
2022-09-15T03:59:02.863Z,18.40
2022-09-15T04:01:33.378Z,18.30
2022-09-15T04:04:02.671Z,18.30
2022-09-15T04:06:29.558Z,18.30
2022-09-15T04:08:56.316Z,18.30
2022-09-15T04:11:23.374Z,18.30
2022-09-15T04:13:50.442Z,18.30
2022-09-15T04:16:25.553Z,18.30
2022-09-15T04:18:53.135Z,18.30
2022-09-15T04:21:25.595Z,18.20
2022-09-15T04:23:53.300Z,18.30
2022-09-15T04:26:31.201Z,18.20
2022-09-15T04:29:03.615Z,18.30
2022-09-15T04:31:34.015Z,18.20
2022-09-15T04:34:03.323Z,18.20
2022-09-15T04:36:31.256Z,18.30
2022-09-15T04:39:00.856Z,18.30
2022-09-15T04:41:30.754Z,18.30
2022-09-15T04:43:58.537Z,18.30
2022-09-15T04:46:25.608Z,18.30
2022-09-15T04:48:52.547Z,18.30
2022-09-15T04:51:23.849Z,18.30
2022-09-15T04:53:51.487Z,18.20
2022-09-15T04:56:27.094Z,18.20
2022-09-15T04:59:03.521Z,18.30
2022-09-15T05:01:34.397Z,18.30
2022-09-15T05:04:06.578Z,18.20
2022-09-15T05:06:34.914Z,18.30
2022-09-15T05:09:05.426Z,18.20
2022-09-15T05:11:38.548Z,18.20
2022-09-15T05:14:05.765Z,18.20
2022-09-15T05:16:32.691Z,18.20
2022-09-15T05:19:03.159Z,18.20
2022-09-15T05:21:35.450Z,18.20
2022-09-15T05:24:04.516Z,18.30
2022-09-15T05:26:35.825Z,18.30
2022-09-15T05:29:04.879Z,18.30
2022-09-15T05:31:35.408Z,18.30
2022-09-15T05:34:05.627Z,18.30
2022-09-15T05:36:35.188Z,18.30
2022-09-15T05:39:04.942Z,18.30
2022-09-15T05:41:31.781Z,18.40
2022-09-15T05:44:03.652Z,18.30
2022-09-15T05:46:30.983Z,18.40
2022-09-15T05:48:58.784Z,18.40
2022-09-15T05:51:25.989Z,18.40
2022-09-15T05:53:57.888Z,18.40
2022-09-15T05:56:24.737Z,18.40
2022-09-15T05:58:52.080Z,18.40
2022-09-15T06:01:23.334Z,18.40
2022-09-15T06:03:50.917Z,18.50
2022-09-15T06:06:21.628Z,18.40
2022-09-15T06:08:58.162Z,18.50
2022-09-15T06:11:29.305Z,18.50
2022-09-15T06:14:01.087Z,18.50
2022-09-15T06:16:35.452Z,18.50
2022-09-15T06:19:07.116Z,18.40
2022-09-15T06:21:34.224Z,18.50
2022-09-15T06:24:06.873Z,18.50
2022-09-15T06:26:34.654Z,18.50
2022-09-15T06:29:04.797Z,18.50
2022-09-15T06:31:35.740Z,18.50
2022-09-15T06:34:05.352Z,18.50
2022-09-15T06:36:32.828Z,18.50
2022-09-15T06:38:59.644Z,18.50
2022-09-15T06:41:38.155Z,18.60
2022-09-15T06:44:12.451Z,18.60
2022-09-15T06:46:39.247Z,18.60
2022-09-15T06:49:10.876Z,18.60
2022-09-15T06:51:39.935Z,18.60
2022-09-15T06:54:09.153Z,18.60
2022-09-15T06:56:38.332Z,18.60
2022-09-15T06:59:10.974Z,18.60
2022-09-15T07:01:37.853Z,18.60
2022-09-15T07:04:09.613Z,18.60
2022-09-15T07:06:40.849Z,18.60
2022-09-15T07:09:10.060Z,18.60
2022-09-15T07:11:39.078Z,18.60
2022-09-15T07:14:08.094Z,18.70
2022-09-15T07:16:37.154Z,18.60
2022-09-15T07:19:09.101Z,18.60
2022-09-15T07:21:40.771Z,18.70
2022-09-15T07:24:07.879Z,18.60
2022-09-15T07:26:35.220Z,18.60
2022-09-15T07:29:05.799Z,18.60
2022-09-15T07:31:35.557Z,18.60
2022-09-15T07:34:05.376Z,18.60
2022-09-15T07:36:32.354Z,18.60
2022-09-15T07:39:05.726Z,18.60
2022-09-15T07:41:35.288Z,18.60
2022-09-15T07:44:02.476Z,18.60
2022-09-15T07:46:36.340Z,18.60
2022-09-15T07:49:04.673Z,18.70
2022-09-15T07:51:36.483Z,18.70
2022-09-15T07:54:05.370Z,18.70
2022-09-15T07:56:32.088Z,18.70
2022-09-15T07:59:01.488Z,18.70
2022-09-15T08:01:31.329Z,18.80
2022-09-15T08:04:00.314Z,18.80
2022-09-15T08:06:31.811Z,18.80
2022-09-15T08:09:00.717Z,18.80
2022-09-15T08:11:30.648Z,18.90
2022-09-15T08:14:02.614Z,18.90
2022-09-15T08:16:31.974Z,18.90
2022-09-15T08:19:01.485Z,19.00
2022-09-15T08:21:30.549Z,19.00
2022-09-15T08:24:02.321Z,19.00
2022-09-15T08:26:30.840Z,19.00
2022-09-15T08:29:01.388Z,19.00
2022-09-15T08:31:30.441Z,19.00
2022-09-15T08:33:57.257Z,19.00
2022-09-15T08:36:27.573Z,19.10
2022-09-15T08:38:59.331Z,19.10
2022-09-15T08:41:41.737Z,19.10
2022-09-15T08:44:40.874Z,19.20
2022-09-15T08:47:28.144Z,19.20
2022-09-15T08:50:34.828Z,19.20
2022-09-15T08:53:03.641Z,19.30
2022-09-15T08:55:45.931Z,19.30
2022-09-15T08:58:37.721Z,19.30
2022-09-15T09:01:16.316Z,19.30
2022-09-15T09:04:07.141Z,19.40
2022-09-15T09:07:19.864Z,19.40
2022-09-15T09:10:37.960Z,19.40
2022-09-15T09:13:15.634Z,19.50
2022-09-15T09:16:33.931Z,19.50
2022-09-15T09:19:35.956Z,19.60
2022-09-15T09:22:15.427Z,19.60
2022-09-15T09:24:47.541Z,19.70
2022-09-15T09:27:19.562Z,19.70
2022-09-15T09:29:49.981Z,19.80
2022-09-15T09:32:40.455Z,19.80
2022-09-15T09:35:35.844Z,19.80
2022-09-15T09:38:02.711Z,19.90
2022-09-15T09:40:32.661Z,19.90
2022-09-15T09:43:03.193Z,20.00
2022-09-15T09:45:29.877Z,20.00
2022-09-15T09:48:11.499Z,20.00
2022-09-15T09:50:47.846Z,20.10
2022-09-15T09:53:34.099Z,20.20
2022-09-15T09:56:24.238Z,20.20
2022-09-15T09:58:51.900Z,20.30
2022-09-15T10:01:26.942Z,20.40
2022-09-15T10:04:21.017Z,20.40
2022-09-15T10:06:48.229Z,20.50
2022-09-15T10:09:23.792Z,20.60
2022-09-15T10:11:57.306Z,20.60
2022-09-15T10:14:33.271Z,20.70
2022-09-15T10:17:42.049Z,20.80
2022-09-15T10:20:32.584Z,20.80
2022-09-15T10:23:27.980Z,20.90
2022-09-15T10:26:17.642Z,21.00
2022-09-15T10:29:12.660Z,21.00
2022-09-15T10:31:41.080Z,21.10
2022-09-15T10:34:30.605Z,21.10
2022-09-15T10:37:22.287Z,21.10
2022-09-15T10:39:53.033Z,21.20
2022-09-15T10:42:31.673Z,21.30
2022-09-15T10:45:27.953Z,21.30
2022-09-15T10:48:16.667Z,21.30
2022-09-15T10:50:54.577Z,21.30
2022-09-15T10:53:33.220Z,21.40
2022-09-15T10:56:17.510Z,21.50
2022-09-15T10:59:31.984Z,21.60
2022-09-15T11:03:02.792Z,21.80
2022-09-15T11:05:39.483Z,22.00
2022-09-15T11:08:41.138Z,22.20
2022-09-15T11:11:43.804Z,22.30
2022-09-15T11:14:22.256Z,22.30
2022-09-15T11:17:32.071Z,22.40
2022-09-15T11:21:01.812Z,22.40
2022-09-15T11:23:55.138Z,22.40
2022-09-15T11:26:39.995Z,22.30
2022-09-15T11:29:46.979Z,22.30
2022-09-15T11:32:30.885Z,22.20
2022-09-15T11:35:42.223Z,22.10
2022-09-15T11:38:48.080Z,22.00
2022-09-15T11:41:45.734Z,21.90
2022-09-15T11:44:36.311Z,21.80
2022-09-15T11:47:36.358Z,21.70
2022-09-15T11:50:23.784Z,21.70
2022-09-15T11:53:32.737Z,21.70
2022-09-15T11:56:33.570Z,21.80
2022-09-15T11:59:23.031Z,22.00
2022-09-15T12:02:04.533Z,22.10
2022-09-15T12:05:03.566Z,22.30
2022-09-15T12:07:35.427Z,22.30
2022-09-15T12:10:24.348Z,22.50
2022-09-15T12:12:56.758Z,22.50
2022-09-15T12:15:29.662Z,22.60
2022-09-15T12:18:37.071Z,22.70
2022-09-15T12:21:22.724Z,22.80
2022-09-15T12:24:02.697Z,23.10
2022-09-15T12:26:33.686Z,23.30
2022-09-15T12:29:03.979Z,23.40
2022-09-15T12:31:39.260Z,23.50
2022-09-15T12:34:24.729Z,23.50
2022-09-15T12:37:08.558Z,23.40
2022-09-15T12:39:48.520Z,23.30
2022-09-15T12:42:33.732Z,23.30
2022-09-15T12:45:07.849Z,23.20
2022-09-15T12:47:57.449Z,23.10
2022-09-15T12:50:39.217Z,22.90
2022-09-15T12:53:46.222Z,22.80
2022-09-15T12:56:32.983Z,22.70
2022-09-15T12:59:13.018Z,22.60
2022-09-15T13:01:53.010Z,22.60
2022-09-15T13:04:42.345Z,22.50
2022-09-15T13:07:15.975Z,22.50
2022-09-15T13:10:11.819Z,22.40
2022-09-15T13:12:51.922Z,22.40
2022-09-15T13:15:20.509Z,22.30
2022-09-15T13:17:47.955Z,22.30
2022-09-15T13:20:25.936Z,22.20
2022-09-15T13:22:57.780Z,22.10
2022-09-15T13:25:34.022Z,22.10
2022-09-15T13:28:04.682Z,22.10
2022-09-15T13:31:10.432Z,22.10
2022-09-15T13:38:07.962Z,22.30
2022-09-15T13:40:45.307Z,22.50
2022-09-15T13:43:53.534Z,22.70
2022-09-15T13:46:34.948Z,22.70
2022-09-15T13:49:40.526Z,22.80
2022-09-15T13:52:24.085Z,22.80
2022-09-15T13:55:16.616Z,22.90
2022-09-15T14:00:47.955Z,22.80
2022-09-15T14:03:48.204Z,22.80
2022-09-15T14:06:24.253Z,22.80
2022-09-15T14:08:59.713Z,22.80
2022-09-15T14:11:33.398Z,22.70
2022-09-15T14:14:01.329Z,22.60
2022-09-15T14:16:41.472Z,22.60
2022-09-15T14:19:37.110Z,22.70
2022-09-15T14:22:28.646Z,22.80
2022-09-15T14:25:05.083Z,22.90
2022-09-15T14:27:38.183Z,22.90
2022-09-15T14:30:11.641Z,22.80
2022-09-15T14:32:45.652Z,22.80
2022-09-15T14:35:19.938Z,22.70
2022-09-15T14:37:59.250Z,22.70
2022-09-15T14:40:31.995Z,22.60
2022-09-15T14:42:58.866Z,22.60
2022-09-15T14:45:54.047Z,22.60
2022-09-15T14:48:28.011Z,22.60
2022-09-15T14:51:08.143Z,22.60
2022-09-15T14:53:43.700Z,22.60
2022-09-15T14:56:27.456Z,22.60
2022-09-15T14:59:08.817Z,22.70
2022-09-15T15:01:42.849Z,22.80
2022-09-15T15:04:24.382Z,23.10
2022-09-15T15:07:27.016Z,23.30
2022-09-15T15:10:33.424Z,23.50
2022-09-15T15:13:12.100Z,23.60
2022-09-15T15:15:39.335Z,23.60
2022-09-15T15:18:32.060Z,23.60
2022-09-15T15:20:59.256Z,23.60
2022-09-15T15:23:27.776Z,23.50
2022-09-15T15:26:29.900Z,23.50
2022-09-15T15:28:56.769Z,23.40
2022-09-15T15:31:33.565Z,23.40
2022-09-15T15:34:09.279Z,23.40
2022-09-15T15:36:38.664Z,23.40
2022-09-15T15:39:09.063Z,23.40
2022-09-15T15:44:21.752Z,23.30
2022-09-15T15:47:09.970Z,23.30
2022-09-15T15:49:46.241Z,23.30
2022-09-15T15:52:23.151Z,23.30
2022-09-15T15:54:52.191Z,23.20
2022-09-15T15:57:35.599Z,23.10
2022-09-15T16:00:04.370Z,23.10
2022-09-15T16:02:31.364Z,23.00
2022-09-15T16:05:02.644Z,22.90
2022-09-15T16:07:33.444Z,22.80
2022-09-15T16:10:04.400Z,22.70
2022-09-15T16:12:33.279Z,22.70
2022-09-15T16:15:06.725Z,22.60
2022-09-15T16:17:40.837Z,22.50
2022-09-15T16:20:12.948Z,22.40
2022-09-15T16:22:40.529Z,22.30
2022-09-15T16:25:28.567Z,22.20
2022-09-15T16:27:55.761Z,22.20
2022-09-15T16:30:22.647Z,22.10
2022-09-15T16:32:54.972Z,22.00
2022-09-15T16:35:32.568Z,22.00
2022-09-15T16:38:04.267Z,21.90
2022-09-15T16:40:31.097Z,21.90
2022-09-15T16:42:58.019Z,21.80
2022-09-15T16:45:39.815Z,21.80
2022-09-15T16:48:10.967Z,21.70
2022-09-15T16:50:50.514Z,21.60
2022-09-15T16:53:31.148Z,21.60
2022-09-15T16:56:00.544Z,21.60
2022-09-15T16:58:28.016Z,21.50
2022-09-15T17:00:56.972Z,21.50
2022-09-15T17:03:26.982Z,21.40
2022-09-15T17:05:57.579Z,21.40
2022-09-15T17:08:29.616Z,21.30
2022-09-15T17:11:02.914Z,21.30
2022-09-15T17:13:33.438Z,21.30
2022-09-15T17:16:01.302Z,21.20
2022-09-15T17:18:33.578Z,21.20
2022-09-15T17:21:00.377Z,21.20
2022-09-15T17:23:43.167Z,21.10
2022-09-15T17:26:16.963Z,21.10
2022-09-15T17:28:49.340Z,21.00
2022-09-15T17:31:24.939Z,21.00
2022-09-15T17:33:52.268Z,21.00
2022-09-15T17:36:21.468Z,20.90
2022-09-15T17:38:53.020Z,20.90
2022-09-15T17:41:22.796Z,20.80
2022-09-15T17:43:52.115Z,20.80
2022-09-15T17:46:21.080Z,20.80
2022-09-15T17:48:47.854Z,20.80
2022-09-15T17:51:17.597Z,20.70
2022-09-15T17:53:47.592Z,20.70
2022-09-15T17:56:14.663Z,20.70
2022-09-15T17:58:47.429Z,20.60
2022-09-15T18:01:18.946Z,20.60
2022-09-15T18:03:50.720Z,20.60
2022-09-15T18:06:17.812Z,20.50
2022-09-15T18:08:46.630Z,20.50
2022-09-15T18:11:16.709Z,20.50
2022-09-15T18:13:43.662Z,20.50
2022-09-15T18:16:14.553Z,20.50
2022-09-15T18:18:44.170Z,20.40
2022-09-15T18:21:24.566Z,20.40
2022-09-15T18:23:51.449Z,20.40
2022-09-15T18:26:21.448Z,20.40
2022-09-15T18:28:54.256Z,20.30
2022-09-15T18:31:21.290Z,20.30
2022-09-15T18:33:50.248Z,20.30
2022-09-15T18:36:20.762Z,20.30
2022-09-15T18:38:50.343Z,20.20
2022-09-15T18:41:22.188Z,20.20
2022-09-15T18:43:52.043Z,20.20
2022-09-15T18:46:21.484Z,20.20
2022-09-15T18:48:50.927Z,20.10
2022-09-15T18:51:29.095Z,20.10
2022-09-15T18:54:02.186Z,20.00
2022-09-15T18:56:33.529Z,20.00
2022-09-15T18:59:02.432Z,19.90
2022-09-15T19:01:34.918Z,19.90
2022-09-15T19:04:04.293Z,19.80
2022-09-15T19:06:31.260Z,19.70
2022-09-15T19:09:00.941Z,19.70
2022-09-15T19:11:32.678Z,19.60
2022-09-15T19:13:59.734Z,19.50
2022-09-15T19:16:53.794Z,19.50
2022-09-15T19:19:25.643Z,19.40
2022-09-15T19:21:52.459Z,19.40
2022-09-15T19:24:22.548Z,19.40
2022-09-15T19:26:51.659Z,19.40
2022-09-15T19:29:21.609Z,19.30
2022-09-15T19:31:50.934Z,19.30
2022-09-15T19:34:19.796Z,19.30
2022-09-15T19:36:49.949Z,19.30
2022-09-15T19:39:19.318Z,19.20
2022-09-15T19:41:46.372Z,19.20
2022-09-15T19:44:18.583Z,19.20
2022-09-15T19:46:50.316Z,19.20
2022-09-15T19:49:17.392Z,19.20
2022-09-15T19:51:53.054Z,19.10
2022-09-15T19:54:19.899Z,19.10
2022-09-15T19:56:49.299Z,19.10
2022-09-15T19:59:16.613Z,19.10
2022-09-15T20:01:45.902Z,19.10
2022-09-15T20:04:14.081Z,19.10
2022-09-15T20:06:41.950Z,19.10
2022-09-15T20:09:10.110Z,19.00
2022-09-15T20:11:39.550Z,19.00
2022-09-15T20:14:11.909Z,19.00
2022-09-15T20:16:39.223Z,19.00
2022-09-15T20:19:08.169Z,19.00
2022-09-15T20:21:49.846Z,19.00
2022-09-15T20:24:21.186Z,19.00
2022-09-15T20:26:48.938Z,19.00
2022-09-15T20:29:16.437Z,19.00
2022-09-15T20:31:47.927Z,18.90
2022-09-15T20:34:20.285Z,18.90
2022-09-15T20:36:47.516Z,18.90
2022-09-15T20:39:21.973Z,18.80
2022-09-15T20:41:51.320Z,18.80
2022-09-15T20:44:20.657Z,18.80
2022-09-15T20:46:47.509Z,18.80
2022-09-15T20:49:15.817Z,18.70
2022-09-15T20:51:42.677Z,18.70
2022-09-15T20:54:10.867Z,18.70
2022-09-15T20:56:40.089Z,18.70
2022-09-15T20:59:10.635Z,18.60
2022-09-15T21:01:39.815Z,18.60
2022-09-15T21:04:11.115Z,18.60
2022-09-15T21:06:38.992Z,18.50
2022-09-15T21:09:07.092Z,18.50
2022-09-15T21:11:36.751Z,18.50
2022-09-15T21:14:12.935Z,18.40
2022-09-15T21:16:39.797Z,18.40
2022-09-15T21:19:10.016Z,18.40
2022-09-15T21:21:42.184Z,18.40
2022-09-15T21:24:13.833Z,18.40
2022-09-15T21:27:05.122Z,18.30
2022-09-15T21:29:31.909Z,18.30
2022-09-15T21:31:58.688Z,18.30
2022-09-15T21:34:28.412Z,18.30
2022-09-15T21:36:57.833Z,18.30
2022-09-15T21:39:24.603Z,18.30
2022-09-15T21:41:51.440Z,18.30
2022-09-15T21:44:20.580Z,18.30
2022-09-15T21:46:47.458Z,18.20
2022-09-15T21:49:18.125Z,18.20
2022-09-15T21:51:49.525Z,18.30
2022-09-15T21:54:20.901Z,18.30
2022-09-15T21:56:47.614Z,18.20
2022-09-15T21:59:19.342Z,18.20
2022-09-15T22:01:46.292Z,18.20
2022-09-15T22:04:15.432Z,18.20
2022-09-15T22:06:42.222Z,18.20
2022-09-15T22:09:22.762Z,18.20
2022-09-15T22:11:52.210Z,18.20
2022-09-15T22:14:21.636Z,18.20
2022-09-15T22:16:50.927Z,18.20
2022-09-15T22:19:17.976Z,18.20
2022-09-15T22:21:45.039Z,18.10
2022-09-15T22:24:13.563Z,18.20
2022-09-15T22:26:42.384Z,18.20
2022-09-15T22:29:13.796Z,18.20
2022-09-15T22:31:45.392Z,18.20
2022-09-15T22:34:14.739Z,18.10
2022-09-15T22:36:44.135Z,18.20
2022-09-15T22:39:12.710Z,18.10
2022-09-15T22:41:39.881Z,18.20
2022-09-15T22:44:18.615Z,18.10
2022-09-15T22:46:45.734Z,18.10
2022-09-15T22:49:14.685Z,18.10
2022-09-15T22:51:41.807Z,18.10
2022-09-15T22:54:08.681Z,18.20
2022-09-15T22:56:39.927Z,18.10
2022-09-15T22:59:08.976Z,18.10
2022-09-15T23:01:40.783Z,18.10
2022-09-15T23:04:09.921Z,18.10
2022-09-15T23:06:38.942Z,18.10
2022-09-15T23:09:09.166Z,18.10
2022-09-15T23:11:40.903Z,18.10
2022-09-15T23:14:15.159Z,18.10
2022-09-15T23:16:46.761Z,18.10
2022-09-15T23:19:14.537Z,18.10
2022-09-15T23:21:43.560Z,18.10
2022-09-15T23:24:12.403Z,18.10
2022-09-15T23:26:41.603Z,18.10
2022-09-15T23:29:13.381Z,18.10
2022-09-15T23:31:40.233Z,18.10
2022-09-15T23:34:07.043Z,18.10
2022-09-15T23:36:36.063Z,18.10
2022-09-15T23:39:03.774Z,18.10
2022-09-15T23:41:32.672Z,18.10
2022-09-15T23:44:02.718Z,18.10
2022-09-15T23:46:30.243Z,18.10
2022-09-15T23:48:59.678Z,18.10
2022-09-15T23:51:28.773Z,18.10
2022-09-15T23:53:55.456Z,18.10
2022-09-15T23:56:25.608Z,18.10
2022-09-15T23:58:52.344Z,18.10
